sensor_id;sensor_type;location;lat;lon;timestamp;pressure;altitude;pressure_sealevel;temperature;humidity
62948;BME280;51940;52.126;-0.994;2023-01-13T00:00:15;98916.68;;;5.39;100.00
62948;BME280;51940;52.126;-0.994;2023-01-13T00:02:41;98921.65;;;5.38;100.00
62948;BME280;51940;52.126;-0.994;2023-01-13T00:05:07;98909.47;;;5.37;100.00
62948;BME280;51940;52.126;-0.994;2023-01-13T00:07:33;98908.77;;;5.37;100.00
62948;BME280;51940;52.126;-0.994;2023-01-13T00:09:59;98903.66;;;5.36;100.00
62948;BME280;51940;52.126;-0.994;2023-01-13T00:12:24;98899.41;;;5.37;100.00
62948;BME280;51940;52.126;-0.994;2023-01-13T00:14:50;98896.05;;;5.37;100.00
62948;BME280;51940;52.126;-0.994;2023-01-13T00:17:15;98892.15;;;5.37;100.00
62948;BME280;51940;52.126;-0.994;2023-01-13T00:19:40;98890.55;;;5.37;100.00
62948;BME280;51940;52.126;-0.994;2023-01-13T00:22:06;98891.40;;;5.39;100.00
62948;BME280;51940;52.126;-0.994;2023-01-13T00:24:31;98895.08;;;5.41;100.00
62948;BME280;51940;52.126;-0.994;2023-01-13T00:26:57;98895.88;;;5.43;100.00
62948;BME280;51940;52.126;-0.994;2023-01-13T00:29:22;98893.73;;;5.45;100.00
62948;BME280;51940;52.126;-0.994;2023-01-13T00:31:48;98894.59;;;5.45;100.00
62948;BME280;51940;52.126;-0.994;2023-01-13T00:34:13;98894.20;;;5.46;100.00
62948;BME280;51940;52.126;-0.994;2023-01-13T00:36:39;98898.59;;;5.48;100.00
62948;BME280;51940;52.126;-0.994;2023-01-13T00:39:05;98898.47;;;5.52;100.00
62948;BME280;51940;52.126;-0.994;2023-01-13T00:41:30;98904.80;;;5.53;100.00
62948;BME280;51940;52.126;-0.994;2023-01-13T00:44:16;98910.67;;;5.52;100.00
62948;BME280;51940;52.126;-0.994;2023-01-13T00:46:41;98910.31;;;5.52;100.00
62948;BME280;51940;52.126;-0.994;2023-01-13T00:49:06;98912.77;;;5.53;100.00
62948;BME280;51940;52.126;-0.994;2023-01-13T00:51:32;98908.33;;;5.53;100.00
62948;BME280;51940;52.126;-0.994;2023-01-13T00:53:58;98913.62;;;5.54;100.00
62948;BME280;51940;52.126;-0.994;2023-01-13T00:56:24;98917.37;;;5.52;100.00
62948;BME280;51940;52.126;-0.994;2023-01-13T00:58:49;98916.02;;;5.51;100.00
62948;BME280;51940;52.126;-0.994;2023-01-13T01:01:18;98919.06;;;5.49;100.00
62948;BME280;51940;52.126;-0.994;2023-01-13T01:03:52;98916.80;;;5.48;100.00
62948;BME280;51940;52.126;-0.994;2023-01-13T01:06:21;98923.69;;;5.48;100.00
62948;BME280;51940;52.126;-0.994;2023-01-13T01:08:47;98919.66;;;5.47;100.00
62948;BME280;51940;52.126;-0.994;2023-01-13T01:11:16;98919.30;;;5.47;100.00
62948;BME280;51940;52.126;-0.994;2023-01-13T01:13:42;98924.12;;;5.45;100.00
62948;BME280;51940;52.126;-0.994;2023-01-13T01:16:10;98920.81;;;5.43;100.00
62948;BME280;51940;52.126;-0.994;2023-01-13T01:18:40;98921.55;;;5.42;100.00
62948;BME280;51940;52.126;-0.994;2023-01-13T01:21:07;98920.23;;;5.39;100.00
62948;BME280;51940;52.126;-0.994;2023-01-13T01:23:34;98925.00;;;5.39;100.00
62948;BME280;51940;52.126;-0.994;2023-01-13T01:26:08;98916.34;;;5.38;100.00
62948;BME280;51940;52.126;-0.994;2023-01-13T01:28:34;98909.48;;;5.37;100.00
62948;BME280;51940;52.126;-0.994;2023-01-13T01:31:08;98912.50;;;5.36;100.00
62948;BME280;51940;52.126;-0.994;2023-01-13T01:33:33;98905.98;;;5.36;100.00
62948;BME280;51940;52.126;-0.994;2023-01-13T01:36:00;98906.70;;;5.35;100.00
62948;BME280;51940;52.126;-0.994;2023-01-13T01:38:26;98910.73;;;5.36;100.00
62948;BME280;51940;52.126;-0.994;2023-01-13T01:40:51;98910.92;;;5.36;100.00
62948;BME280;51940;52.126;-0.994;2023-01-13T01:43:22;98912.67;;;5.36;100.00
62948;BME280;51940;52.126;-0.994;2023-01-13T01:46:23;98919.00;;;5.37;100.00
62948;BME280;51940;52.126;-0.994;2023-01-13T01:48:49;98920.06;;;5.38;100.00
62948;BME280;51940;52.126;-0.994;2023-01-13T01:51:15;98924.65;;;5.39;100.00
62948;BME280;51940;52.126;-0.994;2023-01-13T01:53:41;98922.70;;;5.39;100.00
62948;BME280;51940;52.126;-0.994;2023-01-13T01:56:08;98917.38;;;5.40;100.00
62948;BME280;51940;52.126;-0.994;2023-01-13T01:58:40;98923.20;;;5.41;100.00
62948;BME280;51940;52.126;-0.994;2023-01-13T02:01:10;98919.86;;;5.40;100.00
62948;BME280;51940;52.126;-0.994;2023-01-13T02:03:39;98914.95;;;5.37;100.00
62948;BME280;51940;52.126;-0.994;2023-01-13T02:06:07;98919.93;;;5.36;100.00
62948;BME280;51940;52.126;-0.994;2023-01-13T02:08:33;98918.83;;;5.38;100.00
62948;BME280;51940;52.126;-0.994;2023-01-13T02:10:59;98924.63;;;5.40;100.00
62948;BME280;51940;52.126;-0.994;2023-01-13T02:13:25;98926.15;;;5.42;100.00
62948;BME280;51940;52.126;-0.994;2023-01-13T02:16:07;98931.27;;;5.43;100.00
62948;BME280;51940;52.126;-0.994;2023-01-13T02:18:57;98932.17;;;5.42;100.00
62948;BME280;51940;52.126;-0.994;2023-01-13T02:25:21;98937.11;;;5.42;100.00
62948;BME280;51940;52.126;-0.994;2023-01-13T02:30:46;98932.39;;;5.41;100.00
62948;BME280;51940;52.126;-0.994;2023-01-13T02:38:50;98934.71;;;5.40;100.00
62948;BME280;51940;52.126;-0.994;2023-01-13T02:41:28;98931.86;;;5.41;100.00
62948;BME280;51940;52.126;-0.994;2023-01-13T02:44:19;98931.84;;;5.41;100.00
62948;BME280;51940;52.126;-0.994;2023-01-13T02:46:52;98936.46;;;5.40;100.00
62948;BME280;51940;52.126;-0.994;2023-01-13T02:49:24;98933.33;;;5.38;100.00
62948;BME280;51940;52.126;-0.994;2023-01-13T02:51:54;98928.04;;;5.37;100.00
62948;BME280;51940;52.126;-0.994;2023-01-13T02:54:25;98934.41;;;5.37;100.00
62948;BME280;51940;52.126;-0.994;2023-01-13T02:56:53;98934.30;;;5.34;100.00
62948;BME280;51940;52.126;-0.994;2023-01-13T02:59:20;98941.44;;;5.33;100.00
62948;BME280;51940;52.126;-0.994;2023-01-13T03:01:47;98936.30;;;5.33;100.00
62948;BME280;51940;52.126;-0.994;2023-01-13T03:13:20;98956.29;;;5.32;100.00
62948;BME280;51940;52.126;-0.994;2023-01-13T03:16:11;98950.70;;;5.30;100.00
62948;BME280;51940;52.126;-0.994;2023-01-13T03:24:47;98953.36;;;5.29;100.00
62948;BME280;51940;52.126;-0.994;2023-01-13T03:32:36;98969.62;;;5.29;100.00
62948;BME280;51940;52.126;-0.994;2023-01-13T03:37:38;98973.32;;;5.29;100.00
62948;BME280;51940;52.126;-0.994;2023-01-13T03:40:09;98975.97;;;5.30;100.00
62948;BME280;51940;52.126;-0.994;2023-01-13T03:42:38;98977.23;;;5.29;100.00
62948;BME280;51940;52.126;-0.994;2023-01-13T03:45:13;98977.40;;;5.29;100.00
62948;BME280;51940;52.126;-0.994;2023-01-13T03:47:47;98982.23;;;5.27;100.00
62948;BME280;51940;52.126;-0.994;2023-01-13T03:50:21;98984.56;;;5.26;100.00
62948;BME280;51940;52.126;-0.994;2023-01-13T03:52:56;98988.16;;;5.23;100.00
62948;BME280;51940;52.126;-0.994;2023-01-13T03:55:33;98989.79;;;5.22;100.00
62948;BME280;51940;52.126;-0.994;2023-01-13T04:00:58;98993.01;;;5.20;100.00
62948;BME280;51940;52.126;-0.994;2023-01-13T04:06:46;98988.48;;;5.17;100.00
62948;BME280;51940;52.126;-0.994;2023-01-13T04:09:22;98995.44;;;5.15;100.00
62948;BME280;51940;52.126;-0.994;2023-01-13T04:14:51;98998.79;;;5.16;100.00
62948;BME280;51940;52.126;-0.994;2023-01-13T04:17:18;98992.07;;;5.16;100.00
62948;BME280;51940;52.126;-0.994;2023-01-13T04:19:43;98992.96;;;5.15;100.00
62948;BME280;51940;52.126;-0.994;2023-01-13T04:22:09;98991.38;;;5.15;100.00
62948;BME280;51940;52.126;-0.994;2023-01-13T04:24:34;98994.83;;;5.18;100.00
62948;BME280;51940;52.126;-0.994;2023-01-13T04:27:02;98992.84;;;5.20;100.00
62948;BME280;51940;52.126;-0.994;2023-01-13T04:29:27;98992.98;;;5.22;100.00
62948;BME280;51940;52.126;-0.994;2023-01-13T04:31:53;98994.12;;;5.25;100.00
62948;BME280;51940;52.126;-0.994;2023-01-13T04:34:19;98992.42;;;5.29;100.00
62948;BME280;51940;52.126;-0.994;2023-01-13T04:36:44;98990.70;;;5.34;100.00
62948;BME280;51940;52.126;-0.994;2023-01-13T04:39:09;98992.16;;;5.40;100.00
62948;BME280;51940;52.126;-0.994;2023-01-13T04:41:35;98989.18;;;5.45;100.00
62948;BME280;51940;52.126;-0.994;2023-01-13T04:44:19;98992.07;;;5.50;100.00
62948;BME280;51940;52.126;-0.994;2023-01-13T04:46:45;98988.42;;;5.54;100.00
62948;BME280;51940;52.126;-0.994;2023-01-13T04:49:10;98992.05;;;5.57;100.00
62948;BME280;51940;52.126;-0.994;2023-01-13T04:51:35;98995.13;;;5.61;100.00
62948;BME280;51940;52.126;-0.994;2023-01-13T04:54:01;98992.72;;;5.66;100.00
62948;BME280;51940;52.126;-0.994;2023-01-13T04:56:26;98995.95;;;5.70;100.00
62948;BME280;51940;52.126;-0.994;2023-01-13T04:58:52;99002.42;;;5.74;100.00
62948;BME280;51940;52.126;-0.994;2023-01-13T05:01:17;99000.94;;;5.76;100.00
62948;BME280;51940;52.126;-0.994;2023-01-13T05:03:42;99009.14;;;5.80;100.00
62948;BME280;51940;52.126;-0.994;2023-01-13T05:06:08;99014.05;;;5.81;100.00
62948;BME280;51940;52.126;-0.994;2023-01-13T05:08:33;99019.28;;;5.84;100.00
62948;BME280;51940;52.126;-0.994;2023-01-13T05:10:59;99027.59;;;5.85;100.00
62948;BME280;51940;52.126;-0.994;2023-01-13T05:13:25;99029.35;;;5.85;100.00
62948;BME280;51940;52.126;-0.994;2023-01-13T05:16:09;99034.87;;;5.84;100.00
62948;BME280;51940;52.126;-0.994;2023-01-13T05:18:54;99038.84;;;5.81;100.00
62948;BME280;51940;52.126;-0.994;2023-01-13T05:21:19;99044.92;;;5.78;100.00
62948;BME280;51940;52.126;-0.994;2023-01-13T05:24:03;99054.20;;;5.75;100.00
62948;BME280;51940;52.126;-0.994;2023-01-13T05:26:47;99061.99;;;5.75;100.00
62948;BME280;51940;52.126;-0.994;2023-01-13T05:29:13;99059.53;;;5.74;100.00
62948;BME280;51940;52.126;-0.994;2023-01-13T05:31:38;99064.35;;;5.73;100.00
62948;BME280;51940;52.126;-0.994;2023-01-13T05:34:03;99058.95;;;5.69;100.00
62948;BME280;51940;52.126;-0.994;2023-01-13T05:36:29;99055.73;;;5.64;100.00
62948;BME280;51940;52.126;-0.994;2023-01-13T05:38:54;99056.19;;;5.59;100.00
62948;BME280;51940;52.126;-0.994;2023-01-13T05:41:19;99051.86;;;5.56;100.00
62948;BME280;51940;52.126;-0.994;2023-01-13T05:44:04;99058.13;;;5.53;100.00
62948;BME280;51940;52.126;-0.994;2023-01-13T05:46:29;99065.13;;;5.49;100.00
62948;BME280;51940;52.126;-0.994;2023-01-13T05:48:54;99062.73;;;5.45;100.00
62948;BME280;51940;52.126;-0.994;2023-01-13T05:51:20;99071.29;;;5.43;100.00
62948;BME280;51940;52.126;-0.994;2023-01-13T05:53:50;99069.59;;;5.40;100.00
62948;BME280;51940;52.126;-0.994;2023-01-13T05:56:15;99072.08;;;5.40;100.00
62948;BME280;51940;52.126;-0.994;2023-01-13T05:58:42;99077.38;;;5.40;100.00
62948;BME280;51940;52.126;-0.994;2023-01-13T06:01:08;99076.70;;;5.39;100.00
62948;BME280;51940;52.126;-0.994;2023-01-13T06:03:34;99077.06;;;5.38;100.00
62948;BME280;51940;52.126;-0.994;2023-01-13T06:05:59;99082.84;;;5.41;100.00
62948;BME280;51940;52.126;-0.994;2023-01-13T06:08:26;99083.31;;;5.43;100.00
62948;BME280;51940;52.126;-0.994;2023-01-13T06:10:52;99094.21;;;5.45;100.00
62948;BME280;51940;52.126;-0.994;2023-01-13T06:13:18;99109.55;;;5.48;100.00
62948;BME280;51940;52.126;-0.994;2023-01-13T06:15:43;99114.83;;;5.49;100.00
62948;BME280;51940;52.126;-0.994;2023-01-13T06:18:09;99122.74;;;5.50;100.00
62948;BME280;51940;52.126;-0.994;2023-01-13T06:20:34;99124.80;;;5.53;100.00
62948;BME280;51940;52.126;-0.994;2023-01-13T06:23:02;99131.48;;;5.54;100.00
62948;BME280;51940;52.126;-0.994;2023-01-13T06:25:41;99138.17;;;5.55;100.00
62948;BME280;51940;52.126;-0.994;2023-01-13T06:28:09;99139.54;;;5.58;100.00
62948;BME280;51940;52.126;-0.994;2023-01-13T06:30:38;99142.50;;;5.59;100.00
62948;BME280;51940;52.126;-0.994;2023-01-13T06:33:08;99141.77;;;5.60;100.00
62948;BME280;51940;52.126;-0.994;2023-01-13T06:35:36;99148.67;;;5.60;100.00
62948;BME280;51940;52.126;-0.994;2023-01-13T06:38:05;99152.33;;;5.62;100.00
62948;BME280;51940;52.126;-0.994;2023-01-13T06:40:33;99151.95;;;5.63;100.00
62948;BME280;51940;52.126;-0.994;2023-01-13T06:42:59;99147.52;;;5.64;100.00
62948;BME280;51940;52.126;-0.994;2023-01-13T06:45:51;99161.31;;;5.64;100.00
62948;BME280;51940;52.126;-0.994;2023-01-13T06:48:20;99155.30;;;5.64;100.00
62948;BME280;51940;52.126;-0.994;2023-01-13T06:50:47;99160.78;;;5.64;100.00
62948;BME280;51940;52.126;-0.994;2023-01-13T06:53:12;99167.55;;;5.62;100.00
62948;BME280;51940;52.126;-0.994;2023-01-13T06:55:38;99164.92;;;5.61;100.00
62948;BME280;51940;52.126;-0.994;2023-01-13T06:58:04;99169.20;;;5.60;100.00
62948;BME280;51940;52.126;-0.994;2023-01-13T07:00:29;99172.01;;;5.61;100.00
62948;BME280;51940;52.126;-0.994;2023-01-13T07:03:10;99170.94;;;5.61;100.00
62948;BME280;51940;52.126;-0.994;2023-01-13T07:05:36;99171.61;;;5.62;100.00
62948;BME280;51940;52.126;-0.994;2023-01-13T07:08:02;99165.39;;;5.63;100.00
62948;BME280;51940;52.126;-0.994;2023-01-13T07:10:29;99169.54;;;5.68;100.00
62948;BME280;51940;52.126;-0.994;2023-01-13T07:12:54;99167.31;;;5.72;100.00
62948;BME280;51940;52.126;-0.994;2023-01-13T07:15:38;99176.39;;;5.77;100.00
62948;BME280;51940;52.126;-0.994;2023-01-13T07:18:04;99174.71;;;5.81;100.00
62948;BME280;51940;52.126;-0.994;2023-01-13T07:20:29;99175.75;;;5.82;100.00
62948;BME280;51940;52.126;-0.994;2023-01-13T07:22:56;99174.17;;;5.82;100.00
62948;BME280;51940;52.126;-0.994;2023-01-13T07:25:22;99178.73;;;5.83;100.00
62948;BME280;51940;52.126;-0.994;2023-01-13T07:27:47;99192.53;;;5.83;100.00
62948;BME280;51940;52.126;-0.994;2023-01-13T07:30:13;99196.03;;;5.85;100.00
62948;BME280;51940;52.126;-0.994;2023-01-13T07:32:38;99203.58;;;5.87;100.00
62948;BME280;51940;52.126;-0.994;2023-01-13T07:35:04;99216.80;;;5.89;100.00
62948;BME280;51940;52.126;-0.994;2023-01-13T07:37:35;99219.80;;;5.89;100.00
62948;BME280;51940;52.126;-0.994;2023-01-13T07:40:02;99232.40;;;5.88;100.00
62948;BME280;51940;52.126;-0.994;2023-01-13T07:42:28;99242.10;;;5.90;100.00
62948;BME280;51940;52.126;-0.994;2023-01-13T07:45:12;99243.14;;;5.92;100.00
62948;BME280;51940;52.126;-0.994;2023-01-13T07:47:38;99251.78;;;5.93;100.00
62948;BME280;51940;52.126;-0.994;2023-01-13T07:50:04;99266.42;;;5.94;100.00
62948;BME280;51940;52.126;-0.994;2023-01-13T07:52:30;99274.60;;;5.93;100.00
62948;BME280;51940;52.126;-0.994;2023-01-13T07:54:55;99283.48;;;5.92;100.00
62948;BME280;51940;52.126;-0.994;2023-01-13T07:57:21;99285.77;;;5.93;100.00
62948;BME280;51940;52.126;-0.994;2023-01-13T07:59:46;99293.36;;;5.93;100.00
62948;BME280;51940;52.126;-0.994;2023-01-13T08:02:11;99306.34;;;5.89;100.00
62948;BME280;51940;52.126;-0.994;2023-01-13T08:04:37;99302.36;;;5.85;100.00
62948;BME280;51940;52.126;-0.994;2023-01-13T08:07:04;99310.72;;;5.84;100.00
62948;BME280;51940;52.126;-0.994;2023-01-13T08:09:29;99308.59;;;5.84;100.00
62948;BME280;51940;52.126;-0.994;2023-01-13T08:11:55;99319.91;;;5.84;100.00
62948;BME280;51940;52.126;-0.994;2023-01-13T08:14:39;99327.16;;;5.84;100.00
62948;BME280;51940;52.126;-0.994;2023-01-13T08:17:07;99331.59;;;5.84;100.00
62948;BME280;51940;52.126;-0.994;2023-01-13T08:19:33;99339.73;;;5.84;100.00
62948;BME280;51940;52.126;-0.994;2023-01-13T08:21:58;99338.17;;;5.83;100.00
62948;BME280;51940;52.126;-0.994;2023-01-13T08:24:24;99349.14;;;5.83;100.00
62948;BME280;51940;52.126;-0.994;2023-01-13T08:26:49;99345.59;;;5.83;100.00
62948;BME280;51940;52.126;-0.994;2023-01-13T08:29:14;99351.55;;;5.85;100.00
62948;BME280;51940;52.126;-0.994;2023-01-13T08:31:40;99355.58;;;5.87;100.00
62948;BME280;51940;52.126;-0.994;2023-01-13T08:34:05;99361.90;;;5.89;100.00
62948;BME280;51940;52.126;-0.994;2023-01-13T08:36:31;99359.21;;;5.92;100.00
62948;BME280;51940;52.126;-0.994;2023-01-13T08:38:56;99374.91;;;5.94;100.00
62948;BME280;51940;52.126;-0.994;2023-01-13T08:41:22;99377.34;;;5.97;100.00
62948;BME280;51940;52.126;-0.994;2023-01-13T08:44:06;99389.86;;;6.00;100.00
62948;BME280;51940;52.126;-0.994;2023-01-13T08:46:33;99393.14;;;6.03;100.00
62948;BME280;51940;52.126;-0.994;2023-01-13T08:48:59;99395.36;;;6.06;100.00
62948;BME280;51940;52.126;-0.994;2023-01-13T08:51:24;99404.34;;;6.09;100.00
62948;BME280;51940;52.126;-0.994;2023-01-13T08:53:50;99406.09;;;6.10;100.00
62948;BME280;51940;52.126;-0.994;2023-01-13T08:56:15;99407.96;;;6.13;100.00
62948;BME280;51940;52.126;-0.994;2023-01-13T08:58:41;99408.45;;;6.14;100.00
62948;BME280;51940;52.126;-0.994;2023-01-13T09:01:06;99412.17;;;6.15;100.00
62948;BME280;51940;52.126;-0.994;2023-01-13T09:03:32;99422.09;;;6.15;100.00
62948;BME280;51940;52.126;-0.994;2023-01-13T09:05:58;99429.69;;;6.14;100.00
62948;BME280;51940;52.126;-0.994;2023-01-13T09:08:23;99432.23;;;6.12;100.00
62948;BME280;51940;52.126;-0.994;2023-01-13T09:10:49;99451.34;;;6.13;100.00
62948;BME280;51940;52.126;-0.994;2023-01-13T09:13:15;99453.61;;;6.14;100.00
62948;BME280;51940;52.126;-0.994;2023-01-13T09:15:43;99460.48;;;6.16;100.00
62948;BME280;51940;52.126;-0.994;2023-01-13T09:18:10;99470.16;;;6.18;100.00
62948;BME280;51940;52.126;-0.994;2023-01-13T09:20:36;99475.73;;;6.22;100.00
62948;BME280;51940;52.126;-0.994;2023-01-13T09:23:02;99478.88;;;6.25;100.00
62948;BME280;51940;52.126;-0.994;2023-01-13T09:25:28;99490.20;;;6.26;100.00
62948;BME280;51940;52.126;-0.994;2023-01-13T09:27:54;99487.69;;;6.27;100.00
62948;BME280;51940;52.126;-0.994;2023-01-13T09:30:21;99492.02;;;6.31;100.00
62948;BME280;51940;52.126;-0.994;2023-01-13T09:32:47;99502.56;;;6.36;100.00
62948;BME280;51940;52.126;-0.994;2023-01-13T09:35:12;99500.21;;;6.38;100.00
62948;BME280;51940;52.126;-0.994;2023-01-13T09:37:39;99504.93;;;6.40;100.00
62948;BME280;51940;52.126;-0.994;2023-01-13T09:40:16;99506.47;;;6.43;100.00
62948;BME280;51940;52.126;-0.994;2023-01-13T09:43:12;99516.33;;;6.46;100.00
62948;BME280;51940;52.126;-0.994;2023-01-13T09:46:21;99533.60;;;6.49;100.00
62948;BME280;51940;52.126;-0.994;2023-01-13T09:49:16;99541.45;;;6.55;100.00
62948;BME280;51940;52.126;-0.994;2023-01-13T09:52:16;99540.32;;;6.59;100.00
62948;BME280;51940;52.126;-0.994;2023-01-13T09:54:52;99554.73;;;6.64;100.00
62948;BME280;51940;52.126;-0.994;2023-01-13T09:57:20;99570.91;;;6.70;100.00
62948;BME280;51940;52.126;-0.994;2023-01-13T09:59:47;99574.00;;;6.74;100.00
62948;BME280;51940;52.126;-0.994;2023-01-13T10:05:17;99581.48;;;6.80;100.00
62948;BME280;51940;52.126;-0.994;2023-01-13T10:08:04;99588.90;;;6.82;100.00
62948;BME280;51940;52.126;-0.994;2023-01-13T10:10:45;99587.27;;;6.84;100.00
62948;BME280;51940;52.126;-0.994;2023-01-13T10:13:28;99588.63;;;6.86;100.00
62948;BME280;51940;52.126;-0.994;2023-01-13T10:21:42;99612.05;;;7.01;100.00
62948;BME280;51940;52.126;-0.994;2023-01-13T10:24:08;99619.34;;;7.07;100.00
62948;BME280;51940;52.126;-0.994;2023-01-13T10:27:06;99622.63;;;7.12;100.00
62948;BME280;51940;52.126;-0.994;2023-01-13T10:29:36;99638.84;;;7.16;100.00
62948;BME280;51940;52.126;-0.994;2023-01-13T10:32:02;99643.72;;;7.20;100.00
62948;BME280;51940;52.126;-0.994;2023-01-13T10:34:28;99648.41;;;7.24;100.00
62948;BME280;51940;52.126;-0.994;2023-01-13T10:36:56;99653.17;;;7.25;100.00
62948;BME280;51940;52.126;-0.994;2023-01-13T10:39:26;99656.88;;;7.27;100.00
62948;BME280;51940;52.126;-0.994;2023-01-13T10:42:06;99663.45;;;7.26;100.00
62948;BME280;51940;52.126;-0.994;2023-01-13T10:44:46;99662.55;;;7.27;100.00
62948;BME280;51940;52.126;-0.994;2023-01-13T10:47:17;99673.44;;;7.31;100.00
62948;BME280;51940;52.126;-0.994;2023-01-13T10:52:40;99683.89;;;7.40;100.00
62948;BME280;51940;52.126;-0.994;2023-01-13T10:57:54;99695.81;;;7.47;100.00
62948;BME280;51940;52.126;-0.994;2023-01-13T11:00:31;99708.67;;;7.50;100.00
62948;BME280;51940;52.126;-0.994;2023-01-13T11:03:20;99712.17;;;7.53;100.00
62948;BME280;51940;52.126;-0.994;2023-01-13T11:05:48;99718.06;;;7.58;100.00
62948;BME280;51940;52.126;-0.994;2023-01-13T11:08:20;99721.64;;;7.65;100.00
62948;BME280;51940;52.126;-0.994;2023-01-13T11:10:49;99722.93;;;7.71;100.00
62948;BME280;51940;52.126;-0.994;2023-01-13T11:13:38;99733.09;;;7.76;100.00
62948;BME280;51940;52.126;-0.994;2023-01-13T11:16:24;99735.90;;;7.77;100.00
62948;BME280;51940;52.126;-0.994;2023-01-13T11:18:55;99731.29;;;7.77;100.00
62948;BME280;51940;52.126;-0.994;2023-01-13T11:27:12;99739.02;;;7.81;100.00
62948;BME280;51940;52.126;-0.994;2023-01-13T11:32:17;99748.13;;;7.86;100.00
62948;BME280;51940;52.126;-0.994;2023-01-13T11:34:47;99749.71;;;7.94;100.00
62948;BME280;51940;52.126;-0.994;2023-01-13T11:37:26;99747.15;;;8.05;100.00
62948;BME280;51940;52.126;-0.994;2023-01-13T11:40:26;99754.61;;;8.12;100.00
62948;BME280;51940;52.126;-0.994;2023-01-13T11:43:02;99755.46;;;8.14;100.00
62948;BME280;51940;52.126;-0.994;2023-01-13T11:45:40;99750.16;;;8.20;100.00
62948;BME280;51940;52.126;-0.994;2023-01-13T11:48:11;99758.29;;;8.22;100.00
62948;BME280;51940;52.126;-0.994;2023-01-13T12:07:11;99765.94;;;8.14;100.00
62948;BME280;51940;52.126;-0.994;2023-01-13T12:10:04;99768.91;;;8.16;100.00
62948;BME280;51940;52.126;-0.994;2023-01-13T12:21:28;99779.83;;;8.35;100.00
62948;BME280;51940;52.126;-0.994;2023-01-13T12:24:22;99786.04;;;8.35;100.00
62948;BME280;51940;52.126;-0.994;2023-01-13T12:26:54;99783.73;;;8.35;100.00
62948;BME280;51940;52.126;-0.994;2023-01-13T12:29:28;99778.35;;;8.37;100.00
62948;BME280;51940;52.126;-0.994;2023-01-13T12:31:56;99786.70;;;8.38;100.00
62948;BME280;51940;52.126;-0.994;2023-01-13T12:39:44;99785.08;;;8.23;100.00
62948;BME280;51940;52.126;-0.994;2023-01-13T12:42:27;99792.95;;;8.20;100.00
62948;BME280;51940;52.126;-0.994;2023-01-13T12:47:41;99801.23;;;8.24;100.00
62948;BME280;51940;52.126;-0.994;2023-01-13T12:55:40;99814.25;;;8.36;100.00
62948;BME280;51940;52.126;-0.994;2023-01-13T13:11:33;99816.56;;;8.29;100.00
62948;BME280;51940;52.126;-0.994;2023-01-13T13:17:37;99813.19;;;8.22;100.00
62948;BME280;51940;52.126;-0.994;2023-01-13T13:19:50;99822.62;;;8.21;100.00
62948;BME280;51940;52.126;-0.994;2023-01-13T13:30:37;99820.31;;;8.21;100.00
62948;BME280;51940;52.126;-0.994;2023-01-13T13:41:35;99834.91;;;8.18;100.00
62948;BME280;51940;52.126;-0.994;2023-01-13T13:44:41;99834.09;;;8.16;100.00
62948;BME280;51940;52.126;-0.994;2023-01-13T13:47:36;99837.86;;;8.15;100.00
62948;BME280;51940;52.126;-0.994;2023-01-13T13:50:18;99838.76;;;8.14;100.00
62948;BME280;51940;52.126;-0.994;2023-01-13T13:52:49;99843.73;;;8.14;100.00
62948;BME280;51940;52.126;-0.994;2023-01-13T13:55:26;99858.34;;;8.13;100.00
62948;BME280;51940;52.126;-0.994;2023-01-13T13:57:54;99855.84;;;8.13;100.00
62948;BME280;51940;52.126;-0.994;2023-01-13T14:00:28;99859.77;;;8.13;100.00
62948;BME280;51940;52.126;-0.994;2023-01-13T14:03:05;99862.06;;;8.12;100.00
62948;BME280;51940;52.126;-0.994;2023-01-13T14:05:35;99861.75;;;8.10;100.00
62948;BME280;51940;52.126;-0.994;2023-01-13T14:08:16;99872.45;;;8.09;100.00
62948;BME280;51940;52.126;-0.994;2023-01-13T14:10:44;99869.45;;;8.07;100.00
62948;BME280;51940;52.126;-0.994;2023-01-13T14:15:44;99881.58;;;8.06;100.00
62948;BME280;51940;52.126;-0.994;2023-01-13T14:18:15;99890.51;;;8.04;100.00
62948;BME280;51940;52.126;-0.994;2023-01-13T14:20:42;99896.55;;;8.03;100.00
62948;BME280;51940;52.126;-0.994;2023-01-13T14:23:15;99908.14;;;8.01;100.00
62948;BME280;51940;52.126;-0.994;2023-01-13T14:25:48;99917.78;;;7.99;100.00
62948;BME280;51940;52.126;-0.994;2023-01-13T14:28:29;99917.46;;;7.98;100.00
62948;BME280;51940;52.126;-0.994;2023-01-13T14:30:56;99919.08;;;7.97;100.00
62948;BME280;51940;52.126;-0.994;2023-01-13T14:33:41;99924.63;;;7.94;100.00
62948;BME280;51940;52.126;-0.994;2023-01-13T14:38:43;99927.02;;;7.90;100.00
62948;BME280;51940;52.126;-0.994;2023-01-13T14:41:19;99928.49;;;7.88;100.00
62948;BME280;51940;52.126;-0.994;2023-01-13T14:43:47;99932.61;;;7.86;100.00
62948;BME280;51940;52.126;-0.994;2023-01-13T14:46:14;99932.43;;;7.85;100.00
62948;BME280;51940;52.126;-0.994;2023-01-13T14:48:42;99939.55;;;7.84;100.00
62948;BME280;51940;52.126;-0.994;2023-01-13T14:51:19;99940.11;;;7.83;100.00
62948;BME280;51940;52.126;-0.994;2023-01-13T14:53:47;99943.51;;;7.82;100.00
62948;BME280;51940;52.126;-0.994;2023-01-13T14:56:39;99952.77;;;7.80;100.00
62948;BME280;51940;52.126;-0.994;2023-01-13T14:59:39;99956.39;;;7.77;100.00
62948;BME280;51940;52.126;-0.994;2023-01-13T15:04:50;99959.02;;;7.70;100.00
62948;BME280;51940;52.126;-0.994;2023-01-13T15:07:31;99963.15;;;7.68;100.00
62948;BME280;51940;52.126;-0.994;2023-01-13T15:10:02;99967.29;;;7.65;100.00
62948;BME280;51940;52.126;-0.994;2023-01-13T15:12:37;99963.61;;;7.63;100.00
62948;BME280;51940;52.126;-0.994;2023-01-13T15:15:17;99972.19;;;7.59;100.00
62948;BME280;51940;52.126;-0.994;2023-01-13T15:17:45;99980.09;;;7.54;100.00
62948;BME280;51940;52.126;-0.994;2023-01-13T15:20:12;99982.27;;;7.52;100.00
62948;BME280;51940;52.126;-0.994;2023-01-13T15:22:38;99991.04;;;7.47;100.00
62948;BME280;51940;52.126;-0.994;2023-01-13T15:25:04;99999.14;;;7.41;100.00
62948;BME280;51940;52.126;-0.994;2023-01-13T15:27:30;100000.33;;;7.33;100.00
62948;BME280;51940;52.126;-0.994;2023-01-13T15:29:55;99997.77;;;7.27;100.00
62948;BME280;51940;52.126;-0.994;2023-01-13T15:32:21;99995.00;;;7.23;100.00
62948;BME280;51940;52.126;-0.994;2023-01-13T15:34:47;100005.02;;;7.19;100.00